TimeMDT,TemperatureF,Dew PointF,Humidity,Sea Level PressureIn,VisibilityMPH,Wind Direction,Wind SpeedMPH,Gust SpeedMPH,PrecipitationIn,Events,Conditions,WindDirDegrees,DateUTC
12:56 AM,42.1,34.0,73,30.04,10.0,South,9.2,-,0.00,,Overcast,180,2012-10-09 06:56:00
1:56 AM,39.9,34.0,79,30.05,10.0,South,6.9,-,N/A,,Overcast,180,2012-10-09 07:56:00
2:56 AM,39.0,33.1,79,30.07,10.0,South,8.1,-,N/A,,Overcast,170,2012-10-09 08:56:00
3:56 AM,37.9,32.0,79,30.08,10.0,South,8.1,-,N/A,,Overcast,180,2012-10-09 09:56:00
4:56 AM,37.9,30.9,76,30.09,10.0,SW,5.8,-,N/A,,Overcast,220,2012-10-09 10:56:00
5:56 AM,37.9,30.9,76,30.12,10.0,SW,3.5,-,N/A,,Overcast,230,2012-10-09 11:56:00
6:56 AM,37.9,30.9,76,30.13,10.0,South,4.6,-,N/A,,Overcast,190,2012-10-09 12:56:00
7:56 AM,37.9,30.9,76,30.15,10.0,South,4.6,-,N/A,,Overcast,190,2012-10-09 13:56:00
8:56 AM,37.9,30.0,73,30.17,10.0,Calm,Calm,-,N/A,,Overcast,0,2012-10-09 14:56:00
9:56 AM,39.0,30.9,73,30.18,10.0,SSE,3.5,-,N/A,,Overcast,160,2012-10-09 15:56:00
10:56 AM,41.0,30.9,67,30.20,10.0,Calm,Calm,-,N/A,,Overcast,0,2012-10-09 16:56:00
11:56 AM,42.1,30.0,62,30.19,10.0,Calm,Calm,-,N/A,,Overcast,0,2012-10-09 17:56:00
12:56 PM,46.0,28.9,51,30.18,10.0,Calm,Calm,-,N/A,,Overcast,0,2012-10-09 18:56:00
1:56 PM,52.0,28.9,41,30.14,10.0,North,5.8,-,N/A,,Overcast,10,2012-10-09 19:56:00
2:56 PM,53.1,26.1,35,30.13,10.0,Calm,Calm,-,N/A,,Overcast,0,2012-10-09 20:56:00
3:56 PM,55.0,24.1,30,30.11,10.0,Calm,Calm,-,N/A,,Overcast,0,2012-10-09 21:56:00
4:56 PM,55.0,25.0,31,30.09,10.0,Variable,3.5,-,N/A,,Clear,0,2012-10-09 22:56:00
5:56 PM,54.0,27.0,35,30.09,9.0,ENE,3.5,-,N/A,,Clear,70,2012-10-09 23:56:00
6:56 PM,51.1,26.1,38,30.09,10.0,Calm,Calm,-,N/A,,Clear,0,2012-10-10 00:56:00
7:56 PM,45.0,27.0,49,30.11,10.0,South,5.8,-,N/A,,Clear,170,2012-10-10 01:56:00
8:56 PM,43.0,30.0,60,30.12,10.0,South,9.2,-,N/A,,Clear,170,2012-10-10 02:56:00
9:56 PM,39.9,28.9,65,30.13,10.0,SSE,6.9,-,N/A,,Clear,160,2012-10-10 03:56:00
10:56 PM,35.1,27.0,72,30.14,10.0,SE,8.1,-,N/A,,Clear,140,2012-10-10 04:56:00
11:56 PM,32.0,26.1,79,30.14,10.0,SSE,8.1,-,N/A,,Clear,150,2012-10-10 05:56:00